<?xml version="1.0" encoding="UTF-8" standalone="no" ?>
<gpx xmlns="http://www.topografix.com/GPX/1/1" xmlns:xsi="http://www.w3.org/2001/XMLSchema-instance" xsi:schemaLocation="http://www.topografix.com/GPX/1/1 http://www.topografix.com/GPX/1/1/gpx.xsd" version="1.1" creator="VisuGPX - https://www.visugpx.com">
  <metadata>
    <name>StPierreChemin_PierreRose_23km</name>
    <desc><![CDATA[gnerando idor:8031746]]></desc>
  </metadata>
  <trk>
    <name><![CDATA[StPierreChemin_PierreRose_22.7km-8031746]]></name>
    <extensions>
      <line xmlns="http://www.topografix.com/GPX/gpx_style/0/2">
        <color>0000FF</color>
        <width>4</width>
      </line>
    </extensions>
    <trkseg>
      <trkpt lat="46.69425" lon="-0.70258">
        <ele>225</ele>
        <time>2023-11-13T09:29:49Z</time>
      </trkpt>
      <trkpt lat="46.6919" lon="-0.70296">
        <ele>224</ele>
        <time>2023-11-13T09:35:05Z</time>
      </trkpt>
      <trkpt lat="46.69183" lon="-0.70286">
        <ele>224</ele>
        <time>2023-11-13T09:35:18Z</time>
      </trkpt>
      <trkpt lat="46.69157" lon="-0.70039">
        <ele>220</ele>
        <time>2023-11-13T09:39:06Z</time>
      </trkpt>
      <trkpt lat="46.68864" lon="-0.69516">
        <ele>214</ele>
        <time>2023-11-13T09:49:24Z</time>
      </trkpt>
      <trkpt lat="46.68753" lon="-0.69374">
        <ele>211</ele>
        <time>2023-11-13T09:52:42Z</time>
      </trkpt>
      <trkpt lat="46.68681" lon="-0.69412">
        <ele>217</ele>
        <time>2023-11-13T09:54:24Z</time>
      </trkpt>
      <trkpt lat="46.68537" lon="-0.6964">
        <ele>214</ele>
        <time>2023-11-13T09:59:07Z</time>
      </trkpt>
      <trkpt lat="46.6829" lon="-0.69821">
        <ele>207</ele>
        <time>2023-11-13T10:05:16Z</time>
      </trkpt>
      <trkpt lat="46.68059" lon="-0.69768">
        <ele>192</ele>
        <time>2023-11-13T10:10:28Z</time>
      </trkpt>
      <trkpt lat="46.67635" lon="-0.70022">
        <ele>180</ele>
        <time>2023-11-13T10:20:40Z</time>
      </trkpt>
      <trkpt lat="46.67684" lon="-0.70284">
        <ele>180</ele>
        <time>2023-11-13T10:24:49Z</time>
      </trkpt>
      <trkpt lat="46.67706" lon="-0.70346">
        <ele>179</ele>
        <time>2023-11-13T10:25:53Z</time>
      </trkpt>
      <trkpt lat="46.6763" lon="-0.70433">
        <ele>173</ele>
        <time>2023-11-13T10:28:02Z</time>
      </trkpt>
      <trkpt lat="46.6753" lon="-0.70706">
        <ele>182</ele>
        <time>2023-11-13T10:32:45Z</time>
      </trkpt>
      <trkpt lat="46.6705" lon="-0.70819">
        <ele>192</ele>
        <time>2023-11-13T10:43:34Z</time>
      </trkpt>
      <trkpt lat="46.66991" lon="-0.70639">
        <ele>192</ele>
        <time>2023-11-13T10:46:37Z</time>
      </trkpt>
      <trkpt lat="46.6692" lon="-0.70596">
        <ele>191</ele>
        <time>2023-11-13T10:48:19Z</time>
      </trkpt>
      <trkpt lat="46.6682" lon="-0.7061">
        <ele>187</ele>
        <time>2023-11-13T10:50:33Z</time>
      </trkpt>
      <trkpt lat="46.6675" lon="-0.70505">
        <ele>183</ele>
        <time>2023-11-13T10:52:47Z</time>
      </trkpt>
      <trkpt lat="46.66753" lon="-0.70346">
        <ele>184</ele>
        <time>2023-11-13T10:55:13Z</time>
      </trkpt>
      <trkpt lat="46.66692" lon="-0.70347">
        <ele>182</ele>
        <time>2023-11-13T10:56:34Z</time>
      </trkpt>
      <trkpt lat="46.66507" lon="-0.70169">
        <ele>171</ele>
        <time>2023-11-13T11:01:30Z</time>
      </trkpt>
      <trkpt lat="46.66492" lon="-0.69964">
        <ele>162</ele>
        <time>2023-11-13T11:04:39Z</time>
      </trkpt>
      <trkpt lat="46.66373" lon="-0.69787">
        <ele>153</ele>
        <time>2023-11-13T11:08:26Z</time>
      </trkpt>
      <trkpt lat="46.66439" lon="-0.69657">
        <ele>165</ele>
        <time>2023-11-13T11:10:54Z</time>
      </trkpt>
      <trkpt lat="46.66338" lon="-0.69384">
        <ele>171</ele>
        <time>2023-11-13T11:15:38Z</time>
      </trkpt>
      <trkpt lat="46.66063" lon="-0.69507">
        <ele>164</ele>
        <time>2023-11-13T11:22:02Z</time>
      </trkpt>
      <trkpt lat="46.66139" lon="-0.69706">
        <ele>154</ele>
        <time>2023-11-13T11:25:30Z</time>
      </trkpt>
      <trkpt lat="46.65991" lon="-0.69899">
        <ele>153</ele>
        <time>2023-11-13T11:29:55Z</time>
      </trkpt>
      <trkpt lat="46.65751" lon="-0.70565">
        <ele>140</ele>
        <time>2023-11-13T11:41:24Z</time>
      </trkpt>
      <trkpt lat="46.65544" lon="-0.70553">
        <ele>133</ele>
        <time>2023-11-13T11:46:01Z</time>
      </trkpt>
      <trkpt lat="46.65409" lon="-0.70771">
        <ele>132</ele>
        <time>2023-11-13T11:50:30Z</time>
      </trkpt>
      <trkpt lat="46.6525" lon="-0.7072">
        <ele>134</ele>
        <time>2023-11-13T11:54:07Z</time>
      </trkpt>
      <trkpt lat="46.65153" lon="-0.70883">
        <ele>127</ele>
        <time>2023-11-13T11:57:25Z</time>
      </trkpt>
      <trkpt lat="46.65488" lon="-0.71922">
        <ele>154</ele>
        <time>2023-11-13T12:14:56Z</time>
      </trkpt>
      <trkpt lat="46.65465" lon="-0.72089">
        <ele>155</ele>
        <time>2023-11-13T12:17:32Z</time>
      </trkpt>
      <trkpt lat="46.65503" lon="-0.72286">
        <ele>157</ele>
        <time>2023-11-13T12:20:40Z</time>
      </trkpt>
      <trkpt lat="46.65571" lon="-0.72402">
        <ele>162</ele>
        <time>2023-11-13T12:22:59Z</time>
      </trkpt>
      <trkpt lat="46.65574" lon="-0.72552">
        <ele>161</ele>
        <time>2023-11-13T12:25:17Z</time>
      </trkpt>
      <trkpt lat="46.65695" lon="-0.72703">
        <ele>156</ele>
        <time>2023-11-13T12:28:49Z</time>
      </trkpt>
      <trkpt lat="46.65877" lon="-0.73115">
        <ele>143</ele>
        <time>2023-11-13T12:36:18Z</time>
      </trkpt>
      <trkpt lat="46.65948" lon="-0.73153">
        <ele>145</ele>
        <time>2023-11-13T12:37:59Z</time>
      </trkpt>
      <trkpt lat="46.6611" lon="-0.73273">
        <ele>157</ele>
        <time>2023-11-13T12:42:02Z</time>
      </trkpt>
      <trkpt lat="46.66125" lon="-0.73754">
        <ele>144</ele>
        <time>2023-11-13T12:49:23Z</time>
      </trkpt>
      <trkpt lat="46.66095" lon="-0.74084">
        <ele>137</ele>
        <time>2023-11-13T12:54:27Z</time>
      </trkpt>
      <trkpt lat="46.66119" lon="-0.74243">
        <ele>134</ele>
        <time>2023-11-13T12:56:57Z</time>
      </trkpt>
      <trkpt lat="46.66181" lon="-0.74411">
        <ele>136</ele>
        <time>2023-11-13T12:59:51Z</time>
      </trkpt>
      <trkpt lat="46.66216" lon="-0.74544">
        <ele>135</ele>
        <time>2023-11-13T13:02:02Z</time>
      </trkpt>
      <trkpt lat="46.66201" lon="-0.74763">
        <ele>143</ele>
        <time>2023-11-13T13:05:23Z</time>
      </trkpt>
      <trkpt lat="46.66337" lon="-0.74917">
        <ele>146</ele>
        <time>2023-11-13T13:09:13Z</time>
      </trkpt>
      <trkpt lat="46.66454" lon="-0.7505">
        <ele>149</ele>
        <time>2023-11-13T13:12:31Z</time>
      </trkpt>
      <trkpt lat="46.66631" lon="-0.75123">
        <ele>154</ele>
        <time>2023-11-13T13:16:37Z</time>
      </trkpt>
      <trkpt lat="46.66834" lon="-0.74913">
        <ele>165</ele>
        <time>2023-11-13T13:22:09Z</time>
      </trkpt>
      <trkpt lat="46.66958" lon="-0.74797">
        <ele>162</ele>
        <time>2023-11-13T13:25:26Z</time>
      </trkpt>
      <trkpt lat="46.67058" lon="-0.74805">
        <ele>163</ele>
        <time>2023-11-13T13:27:39Z</time>
      </trkpt>
      <trkpt lat="46.67403" lon="-0.74715">
        <ele>178</ele>
        <time>2023-11-13T13:35:27Z</time>
      </trkpt>
      <trkpt lat="46.6742" lon="-0.74647">
        <ele>180</ele>
        <time>2023-11-13T13:36:33Z</time>
      </trkpt>
      <trkpt lat="46.67574" lon="-0.74587">
        <ele>191</ele>
        <time>2023-11-13T13:40:06Z</time>
      </trkpt>
      <trkpt lat="46.67641" lon="-0.74492">
        <ele>191</ele>
        <time>2023-11-13T13:42:11Z</time>
      </trkpt>
      <trkpt lat="46.67791" lon="-0.74492">
        <ele>189</ele>
        <time>2023-11-13T13:45:31Z</time>
      </trkpt>
      <trkpt lat="46.6778" lon="-0.74278">
        <ele>180</ele>
        <time>2023-11-13T13:48:47Z</time>
      </trkpt>
      <trkpt lat="46.67836" lon="-0.74089">
        <ele>179</ele>
        <time>2023-11-13T13:51:56Z</time>
      </trkpt>
      <trkpt lat="46.67809" lon="-0.73977">
        <ele>173</ele>
        <time>2023-11-13T13:53:44Z</time>
      </trkpt>
      <trkpt lat="46.68183" lon="-0.73604">
        <ele>179</ele>
        <time>2023-11-13T14:03:49Z</time>
      </trkpt>
      <trkpt lat="46.68321" lon="-0.73578">
        <ele>181</ele>
        <time>2023-11-13T14:06:55Z</time>
      </trkpt>
      <trkpt lat="46.68307" lon="-0.73424">
        <ele>180</ele>
        <time>2023-11-13T14:09:17Z</time>
      </trkpt>
      <trkpt lat="46.68383" lon="-0.73394">
        <ele>182</ele>
        <time>2023-11-13T14:11:02Z</time>
      </trkpt>
      <trkpt lat="46.68404" lon="-0.73278">
        <ele>182</ele>
        <time>2023-11-13T14:12:52Z</time>
      </trkpt>
      <trkpt lat="46.68474" lon="-0.73239">
        <ele>184</ele>
        <time>2023-11-13T14:14:32Z</time>
      </trkpt>
      <trkpt lat="46.68669" lon="-0.73102">
        <ele>198</ele>
        <time>2023-11-13T14:19:21Z</time>
      </trkpt>
      <trkpt lat="46.68789" lon="-0.73123">
        <ele>199</ele>
        <time>2023-11-13T14:22:02Z</time>
      </trkpt>
      <trkpt lat="46.69056" lon="-0.72971">
        <ele>178</ele>
        <time>2023-11-13T14:28:25Z</time>
      </trkpt>
      <trkpt lat="46.69133" lon="-0.72905">
        <ele>178</ele>
        <time>2023-11-13T14:30:24Z</time>
      </trkpt>
      <trkpt lat="46.69228" lon="-0.72951">
        <ele>181</ele>
        <time>2023-11-13T14:32:37Z</time>
      </trkpt>
      <trkpt lat="46.69472" lon="-0.73202">
        <ele>183</ele>
        <time>2023-11-13T14:39:16Z</time>
      </trkpt>
      <trkpt lat="46.69522" lon="-0.73314">
        <ele>188</ele>
        <time>2023-11-13T14:41:18Z</time>
      </trkpt>
      <trkpt lat="46.69477" lon="-0.73413">
        <ele>184</ele>
        <time>2023-11-13T14:43:07Z</time>
      </trkpt>
      <trkpt lat="46.69672" lon="-0.73723">
        <ele>179</ele>
        <time>2023-11-13T14:49:32Z</time>
      </trkpt>
      <trkpt lat="46.69731" lon="-0.73816">
        <ele>176</ele>
        <time>2023-11-13T14:51:28Z</time>
      </trkpt>
      <trkpt lat="46.69803" lon="-0.74132">
        <ele>181</ele>
        <time>2023-11-13T14:56:33Z</time>
      </trkpt>
      <trkpt lat="46.69903" lon="-0.74126">
        <ele>183</ele>
        <time>2023-11-13T14:58:46Z</time>
      </trkpt>
      <trkpt lat="46.70351" lon="-0.73697">
        <ele>193</ele>
        <time>2023-11-13T15:10:41Z</time>
      </trkpt>
      <trkpt lat="46.70564" lon="-0.73631">
        <ele>196</ele>
        <time>2023-11-13T15:15:32Z</time>
      </trkpt>
      <trkpt lat="46.70618" lon="-0.73525">
        <ele>194</ele>
        <time>2023-11-13T15:17:33Z</time>
      </trkpt>
      <trkpt lat="46.70641" lon="-0.73221">
        <ele>193</ele>
        <time>2023-11-13T15:22:13Z</time>
      </trkpt>
      <trkpt lat="46.70736" lon="-0.73083">
        <ele>198</ele>
        <time>2023-11-13T15:25:12Z</time>
      </trkpt>
      <trkpt lat="46.70948" lon="-0.72825">
        <ele>192</ele>
        <time>2023-11-13T15:31:20Z</time>
      </trkpt>
      <trkpt lat="46.7103" lon="-0.72786">
        <ele>188</ele>
        <time>2023-11-13T15:33:15Z</time>
      </trkpt>
      <trkpt lat="46.71097" lon="-0.7267">
        <ele>189</ele>
        <time>2023-11-13T15:35:34Z</time>
      </trkpt>
      <trkpt lat="46.71059" lon="-0.72533">
        <ele>194</ele>
        <time>2023-11-13T15:37:49Z</time>
      </trkpt>
      <trkpt lat="46.70969" lon="-0.72571">
        <ele>198</ele>
        <time>2023-11-13T15:39:54Z</time>
      </trkpt>
      <trkpt lat="46.70784" lon="-0.72566">
        <ele>209</ele>
        <time>2023-11-13T15:44:01Z</time>
      </trkpt>
      <trkpt lat="46.70539" lon="-0.72296">
        <ele>220</ele>
        <time>2023-11-13T15:50:51Z</time>
      </trkpt>
      <trkpt lat="46.7038" lon="-0.72021">
        <ele>223</ele>
        <time>2023-11-13T15:56:20Z</time>
      </trkpt>
      <trkpt lat="46.70173" lon="-0.72049">
        <ele>221</ele>
        <time>2023-11-13T16:00:58Z</time>
      </trkpt>
      <trkpt lat="46.69943" lon="-0.72307">
        <ele>209</ele>
        <time>2023-11-13T16:07:25Z</time>
      </trkpt>
      <trkpt lat="46.70052" lon="-0.72577">
        <ele>208</ele>
        <time>2023-11-13T16:12:12Z</time>
      </trkpt>
      <trkpt lat="46.6998" lon="-0.72643">
        <ele>207</ele>
        <time>2023-11-13T16:14:05Z</time>
      </trkpt>
      <trkpt lat="46.69928" lon="-0.72753">
        <ele>205</ele>
        <time>2023-11-13T16:16:07Z</time>
      </trkpt>
      <trkpt lat="46.69795" lon="-0.72379">
        <ele>199</ele>
        <time>2023-11-13T16:22:33Z</time>
      </trkpt>
      <trkpt lat="46.69335" lon="-0.72175">
        <ele>222</ele>
        <time>2023-11-13T16:33:15Z</time>
      </trkpt>
      <trkpt lat="46.69203" lon="-0.71894">
        <ele>223</ele>
        <time>2023-11-13T16:38:26Z</time>
      </trkpt>
      <trkpt lat="46.69203" lon="-0.71839">
        <ele>225</ele>
        <time>2023-11-13T16:39:17Z</time>
      </trkpt>
      <trkpt lat="46.69196" lon="-0.71823">
        <ele>225</ele>
        <time>2023-11-13T16:39:34Z</time>
      </trkpt>
      <trkpt lat="46.69165" lon="-0.71603">
        <ele>227</ele>
        <time>2023-11-13T16:43:00Z</time>
      </trkpt>
      <trkpt lat="46.69214" lon="-0.71317">
        <ele>223</ele>
        <time>2023-11-13T16:47:29Z</time>
      </trkpt>
      <trkpt lat="46.69199" lon="-0.71102">
        <ele>218</ele>
        <time>2023-11-13T16:50:47Z</time>
      </trkpt>
      <trkpt lat="46.69301" lon="-0.70877">
        <ele>216</ele>
        <time>2023-11-13T16:54:54Z</time>
      </trkpt>
      <trkpt lat="46.69313" lon="-0.70673">
        <ele>218</ele>
        <time>2023-11-13T16:58:01Z</time>
      </trkpt>
      <trkpt lat="46.69358" lon="-0.70365">
        <ele>224</ele>
        <time>2023-11-13T17:02:50Z</time>
      </trkpt>
      <trkpt lat="46.69326" lon="-0.70299">
        <ele>224</ele>
        <time>2023-11-13T17:04:04Z</time>
      </trkpt>
    </trkseg>
  </trk>
</gpx>